createdAt,value
2023-02-03T00:02:02.249Z,55.21
2023-02-03T00:04:29.143Z,53.94
2023-02-03T00:06:55.610Z,54.44
2023-02-03T00:09:22.301Z,53.50
2023-02-03T00:11:48.961Z,53.80
2023-02-03T00:14:18.070Z,53.92
2023-02-03T00:16:44.552Z,53.73
2023-02-03T00:19:11.453Z,53.48
2023-02-03T00:21:40.049Z,54.11
2023-02-03T00:24:06.553Z,54.42
2023-02-03T00:26:32.943Z,53.86
2023-02-03T00:28:59.690Z,53.87
2023-02-03T00:31:26.113Z,53.85
2023-02-03T00:33:53.068Z,53.86
2023-02-03T00:36:19.558Z,54.49
2023-02-03T00:38:46.078Z,54.12
2023-02-03T00:41:12.436Z,55.10
2023-02-03T00:43:38.911Z,54.45
2023-02-03T00:46:05.445Z,54.50
2023-02-03T00:48:32.119Z,54.21
2023-02-03T00:50:58.621Z,53.20
2023-02-03T00:53:25.019Z,53.70
2023-02-03T00:55:51.483Z,53.72
2023-02-03T00:58:17.946Z,53.09
2023-02-03T01:00:44.737Z,52.79
2023-02-03T01:03:11.456Z,54.13
2023-02-03T01:05:37.938Z,53.98
2023-02-03T01:08:04.441Z,53.07
2023-02-03T01:10:30.859Z,53.72
2023-02-03T01:12:57.612Z,54.04
2023-02-03T01:15:24.383Z,53.57
2023-02-03T01:17:50.800Z,53.64
2023-02-03T01:20:17.251Z,54.17
2023-02-03T01:22:43.642Z,54.00
2023-02-03T01:25:10.112Z,53.75
2023-02-03T01:27:36.597Z,54.43
2023-02-03T01:30:03.318Z,54.76
2023-02-03T01:32:30.427Z,54.57
2023-02-03T01:34:56.827Z,54.33
2023-02-03T01:37:23.345Z,53.71
2023-02-03T01:39:49.828Z,54.73
2023-02-03T01:42:16.251Z,54.26
2023-02-03T01:44:42.999Z,54.18
2023-02-03T01:47:09.475Z,53.86
2023-02-03T01:49:36.196Z,52.79
2023-02-03T01:52:02.725Z,52.78
2023-02-03T01:54:29.242Z,52.93
2023-02-03T01:56:56.629Z,52.80
2023-02-03T01:59:23.571Z,52.18
2023-02-03T02:01:50.124Z,51.99
2023-02-03T02:04:17.026Z,53.52
2023-02-03T02:06:43.924Z,53.21
2023-02-03T02:09:10.280Z,52.94
2023-02-03T02:11:36.783Z,53.50
2023-02-03T02:14:03.607Z,52.74
2023-02-03T02:16:30.053Z,52.72
2023-02-03T02:18:56.555Z,53.33
2023-02-03T02:21:22.947Z,53.28
2023-02-03T02:23:49.783Z,53.63
2023-02-03T02:26:16.169Z,53.85
2023-02-03T02:28:42.625Z,53.01
2023-02-03T02:31:09.312Z,53.03
2023-02-03T02:33:35.862Z,53.07
2023-02-03T02:36:02.394Z,54.16
2023-02-03T02:38:29.424Z,56.17
2023-02-03T02:40:55.804Z,55.97
2023-02-03T02:43:22.288Z,56.76
2023-02-03T02:45:49.585Z,56.17
2023-02-03T02:48:16.035Z,56.44
2023-02-03T02:50:42.479Z,56.76
2023-02-03T02:53:09.114Z,56.84
2023-02-03T02:55:35.596Z,56.79
2023-02-03T02:58:02.262Z,57.32
2023-02-03T03:00:29.152Z,56.94
2023-02-03T03:02:56.088Z,56.94
2023-02-03T03:05:22.764Z,57.14
2023-02-03T03:07:50.331Z,57.38
2023-02-03T03:10:16.730Z,59.04
2023-02-03T03:12:46.436Z,62.31
2023-02-03T03:15:12.875Z,61.40
2023-02-03T03:17:39.534Z,59.66
2023-02-03T03:20:05.948Z,60.62
2023-02-03T03:22:32.338Z,60.91
2023-02-03T03:24:58.889Z,59.77
2023-02-03T03:27:27.392Z,58.10
2023-02-03T03:29:54.208Z,57.38
2023-02-03T03:32:20.673Z,57.10
2023-02-03T03:34:47.301Z,56.90
2023-02-03T03:37:16.168Z,56.59
2023-02-03T03:39:42.609Z,57.08
2023-02-03T03:42:09.081Z,56.30
2023-02-03T03:44:35.606Z,55.92
2023-02-03T03:47:02.005Z,57.36
2023-02-03T03:49:28.594Z,56.23
2023-02-03T03:51:55.046Z,55.64
2023-02-03T03:54:21.455Z,55.58
2023-02-03T03:56:48.017Z,56.08
2023-02-03T03:59:14.735Z,56.05
2023-02-03T04:01:41.356Z,57.05
2023-02-03T04:04:08.043Z,56.54
2023-02-03T04:06:34.422Z,57.26
2023-02-03T04:09:00.979Z,57.71
2023-02-03T04:11:27.935Z,57.21
2023-02-03T04:13:54.471Z,56.25
2023-02-03T04:16:20.958Z,56.45
2023-02-03T04:18:48.572Z,56.55
2023-02-03T04:21:15.112Z,56.37
2023-02-03T04:23:41.535Z,56.53
2023-02-03T04:26:08.176Z,56.25
2023-02-03T04:28:34.626Z,56.02
2023-02-03T04:31:01.073Z,56.10
2023-02-03T04:33:27.803Z,55.88
2023-02-03T04:35:54.202Z,57.34
2023-02-03T04:38:20.910Z,57.31
2023-02-03T04:40:47.649Z,58.39
2023-02-03T04:43:14.074Z,57.89
2023-02-03T04:45:40.555Z,57.60
2023-02-03T04:48:06.953Z,58.81
2023-02-03T04:50:33.406Z,58.28
2023-02-03T04:53:00.035Z,57.35
2023-02-03T04:55:26.652Z,60.38
2023-02-03T04:57:53.068Z,59.77
2023-02-03T05:00:19.728Z,60.12
2023-02-03T05:02:46.160Z,59.74
2023-02-03T05:05:12.724Z,59.96
2023-02-03T05:07:39.147Z,60.55
2023-02-03T05:10:05.561Z,61.34
2023-02-03T05:12:32.925Z,60.89
2023-02-03T05:14:59.355Z,61.67
2023-02-03T05:17:25.802Z,60.80
2023-02-03T05:19:52.422Z,60.56
2023-02-03T05:22:18.959Z,60.68
2023-02-03T05:24:45.583Z,60.42
2023-02-03T05:27:12.243Z,64.88
2023-02-03T05:29:38.864Z,66.79
2023-02-03T05:32:05.377Z,62.31
2023-02-03T05:34:32.008Z,62.96
2023-02-03T05:36:58.522Z,61.85
2023-02-03T05:39:25.032Z,63.04
2023-02-03T05:41:51.516Z,63.21
2023-02-03T05:44:22.402Z,63.22
2023-02-03T05:46:48.981Z,63.44
2023-02-03T05:49:15.467Z,62.88
2023-02-03T05:51:44.679Z,63.54
2023-02-03T05:54:12.400Z,64.64
2023-02-03T05:56:38.918Z,63.61
2023-02-03T05:59:05.792Z,63.54
2023-02-03T06:01:32.541Z,65.14
2023-02-03T06:03:59.249Z,64.01
2023-02-03T06:06:25.971Z,64.53
2023-02-03T06:08:52.395Z,62.98
2023-02-03T06:11:18.864Z,65.55
2023-02-03T06:13:45.583Z,66.14
2023-02-03T06:16:12.184Z,66.38
2023-02-03T06:18:38.746Z,64.69
2023-02-03T06:21:05.218Z,65.19
2023-02-03T06:23:34.856Z,65.69
2023-02-03T06:26:03.911Z,64.29
2023-02-03T06:28:30.831Z,64.21
2023-02-03T06:30:57.323Z,64.06
2023-02-03T06:33:24.138Z,63.94
2023-02-03T06:35:50.799Z,64.43
2023-02-03T06:38:17.271Z,63.33
2023-02-03T06:40:45.753Z,63.25
2023-02-03T06:43:12.446Z,63.48
2023-02-03T06:45:39.169Z,62.66
2023-02-03T06:48:05.556Z,63.86
2023-02-03T06:50:33.101Z,63.42
2023-02-03T06:52:59.807Z,63.83
2023-02-03T06:55:26.875Z,63.73
2023-02-03T06:57:53.854Z,63.57
2023-02-03T07:00:20.542Z,64.93
2023-02-03T07:02:47.951Z,64.73
2023-02-03T07:05:17.670Z,64.52
2023-02-03T07:07:44.490Z,63.70
2023-02-03T07:10:11.411Z,63.67
2023-02-03T07:12:39.863Z,64.87
2023-02-03T07:15:07.414Z,64.08
2023-02-03T07:17:34.405Z,64.74
2023-02-03T07:20:02.838Z,65.05
2023-02-03T07:22:30.834Z,63.93
2023-02-03T07:24:57.422Z,65.58
2023-02-03T07:27:23.951Z,65.21
2023-02-03T07:29:50.587Z,65.51
2023-02-03T07:32:17.505Z,64.00
2023-02-03T07:34:45.955Z,64.18
2023-02-03T07:37:12.418Z,65.12
2023-02-03T07:39:40.828Z,65.95
2023-02-03T07:42:07.381Z,65.88
2023-02-03T07:44:33.783Z,65.69
2023-02-03T07:47:01.570Z,65.68
2023-02-03T07:49:30.013Z,65.13
2023-02-03T07:51:58.073Z,65.32
2023-02-03T07:54:24.455Z,64.69
2023-02-03T07:56:51.752Z,64.67
2023-02-03T07:59:18.231Z,64.68
2023-02-03T08:01:44.930Z,65.39
2023-02-03T08:04:11.468Z,65.32
2023-02-03T08:06:37.951Z,66.19
2023-02-03T08:09:04.385Z,66.88
2023-02-03T08:11:30.889Z,66.53
2023-02-03T08:13:57.385Z,66.93
2023-02-03T08:16:23.967Z,66.79
2023-02-03T08:18:50.420Z,65.72
2023-02-03T08:21:17.016Z,65.91
2023-02-03T08:23:43.598Z,65.76
2023-02-03T08:26:10.280Z,65.72
2023-02-03T08:28:36.686Z,65.84
2023-02-03T08:31:03.431Z,65.43
2023-02-03T08:33:30.071Z,65.28
2023-02-03T08:38:41.865Z,64.46
2023-02-03T08:41:08.378Z,64.71
2023-02-03T08:43:34.862Z,64.45
2023-02-03T08:46:01.308Z,64.20
2023-02-03T08:48:28.200Z,64.35
2023-02-03T08:50:55.892Z,64.43
2023-02-03T08:53:22.342Z,64.59
2023-02-03T08:55:49.945Z,63.87
2023-02-03T08:58:16.707Z,64.04
2023-02-03T09:00:46.379Z,63.49
2023-02-03T09:03:12.888Z,64.49
2023-02-03T09:05:40.547Z,64.79
2023-02-03T09:08:07.364Z,64.89
2023-02-03T09:10:33.826Z,64.27
2023-02-03T09:13:00.379Z,64.00
2023-02-03T09:15:28.341Z,63.32
2023-02-03T09:17:54.818Z,63.25
2023-02-03T09:20:21.431Z,62.80
2023-02-03T09:22:48.066Z,62.02
2023-02-03T09:25:14.778Z,63.02
2023-02-03T09:27:41.249Z,62.78
2023-02-03T09:30:07.947Z,62.29
2023-02-03T09:32:34.766Z,61.60
2023-02-03T09:35:01.948Z,60.95
2023-02-03T09:37:29.587Z,61.33
2023-02-03T09:39:56.906Z,60.87
2023-02-03T09:42:23.339Z,59.32
2023-02-03T09:44:51.864Z,59.75
2023-02-03T09:47:18.627Z,59.20
2023-02-03T09:49:45.758Z,59.88
2023-02-03T09:52:12.658Z,60.13
2023-02-03T09:54:39.299Z,59.30
2023-02-03T09:57:05.831Z,59.63
2023-02-03T09:59:32.231Z,59.84
2023-02-03T10:01:59.097Z,60.24
2023-02-03T10:04:27.694Z,60.34
2023-02-03T10:06:54.482Z,60.10
2023-02-03T10:09:35.617Z,60.17
2023-02-03T10:12:02.248Z,60.48
2023-02-03T10:14:29.258Z,60.04
2023-02-03T10:16:55.953Z,60.00
2023-02-03T10:19:22.556Z,59.75
2023-02-03T10:21:56.644Z,59.81
2023-02-03T10:24:24.310Z,58.79
2023-02-03T10:26:53.065Z,59.27
2023-02-03T10:29:19.553Z,58.50
2023-02-03T10:31:46.541Z,58.05
2023-02-03T10:34:13.099Z,58.27
2023-02-03T10:36:39.946Z,58.58
2023-02-03T10:39:06.450Z,58.22
2023-02-03T10:41:32.959Z,58.71
2023-02-03T10:43:59.584Z,58.00
2023-02-03T10:46:26.309Z,58.19
2023-02-03T10:48:53.854Z,58.91
2023-02-03T10:51:20.732Z,58.35
2023-02-03T10:53:47.227Z,57.85
2023-02-03T10:56:14.138Z,58.49
2023-02-03T10:58:40.562Z,58.32
2023-02-03T11:01:07.396Z,57.44
2023-02-03T11:03:41.367Z,58.16
2023-02-03T11:06:08.111Z,58.00
2023-02-03T11:08:34.503Z,57.15
2023-02-03T11:11:00.960Z,56.82
2023-02-03T11:13:27.463Z,56.80
2023-02-03T11:15:54.202Z,56.83
2023-02-03T11:18:21.607Z,56.65
2023-02-03T11:20:48.524Z,55.99
2023-02-03T11:23:15.023Z,55.27
2023-02-03T11:25:41.533Z,56.66
2023-02-03T11:28:08.024Z,56.25
2023-02-03T11:30:34.512Z,57.31
2023-02-03T11:33:01.213Z,57.94
2023-02-03T11:35:28.017Z,57.40
2023-02-03T11:37:54.617Z,56.96
2023-02-03T11:40:21.116Z,56.96
2023-02-03T11:42:50.161Z,57.31
2023-02-03T11:45:17.228Z,57.40
2023-02-03T11:47:43.799Z,56.55
2023-02-03T11:50:10.420Z,58.49
2023-02-03T11:52:37.406Z,58.33
2023-02-03T11:55:03.894Z,58.19
2023-02-03T11:57:30.661Z,58.40
2023-02-03T11:59:57.215Z,59.31
2023-02-03T12:02:23.961Z,61.29
2023-02-03T12:04:50.668Z,60.34
2023-02-03T12:07:17.302Z,59.39
2023-02-03T12:09:43.816Z,60.59
2023-02-03T12:12:10.324Z,59.60
2023-02-03T12:14:36.725Z,60.38
2023-02-03T12:17:03.277Z,61.08
2023-02-03T12:19:29.708Z,61.36
2023-02-03T12:21:56.204Z,61.95
2023-02-03T12:24:23.171Z,61.14
2023-02-03T12:26:50.761Z,60.33
2023-02-03T12:29:17.404Z,60.36
2023-02-03T12:31:44.627Z,60.14
2023-02-03T12:34:11.198Z,59.81
2023-02-03T12:36:38.279Z,59.10
2023-02-03T12:39:04.801Z,58.94
2023-02-03T12:41:31.373Z,58.62
2023-02-03T12:43:57.900Z,61.34
2023-02-03T12:46:25.456Z,59.10
2023-02-03T12:48:51.848Z,60.14
2023-02-03T12:51:18.373Z,59.48
2023-02-03T12:53:44.811Z,59.95
2023-02-03T12:56:12.141Z,60.38
2023-02-03T12:58:40.971Z,60.37
2023-02-03T13:01:10.239Z,60.07
2023-02-03T13:03:36.820Z,60.58
2023-02-03T13:06:03.296Z,59.68
2023-02-03T13:08:30.129Z,59.98
2023-02-03T13:10:56.576Z,59.14
2023-02-03T13:13:23.103Z,59.13
2023-02-03T13:15:49.987Z,59.65
2023-02-03T13:18:16.704Z,59.37
2023-02-03T13:20:43.450Z,58.64
2023-02-03T13:23:12.071Z,59.00
2023-02-03T13:25:38.964Z,58.48
2023-02-03T13:28:05.695Z,58.49
2023-02-03T13:30:32.564Z,59.21
2023-02-03T13:33:00.049Z,58.81
2023-02-03T13:35:33.952Z,58.83
2023-02-03T13:38:01.158Z,58.65
2023-02-03T13:40:27.744Z,60.00
2023-02-03T13:42:56.244Z,59.64
2023-02-03T13:45:22.664Z,59.03
2023-02-03T13:47:49.209Z,59.19
2023-02-03T13:50:16.168Z,59.83
2023-02-03T13:52:44.854Z,60.75
2023-02-03T13:55:11.528Z,62.27
2023-02-03T13:57:38.321Z,63.88
2023-02-03T14:00:04.732Z,62.38
2023-02-03T14:02:33.554Z,62.40
2023-02-03T14:05:00.085Z,62.07
2023-02-03T14:07:30.147Z,61.80
2023-02-03T14:09:58.127Z,62.91
2023-02-03T14:12:24.558Z,62.29
2023-02-03T14:14:51.201Z,63.52
2023-02-03T14:17:17.845Z,61.99
2023-02-03T14:19:44.798Z,66.14
2023-02-03T14:22:11.814Z,65.31
2023-02-03T14:24:39.084Z,64.46
2023-02-03T14:27:05.609Z,65.89
2023-02-03T14:29:33.038Z,66.23
2023-02-03T14:31:59.792Z,66.14
2023-02-03T14:34:26.461Z,65.81
2023-02-03T14:36:55.389Z,66.93
2023-02-03T14:39:21.858Z,64.24
2023-02-03T14:41:49.010Z,66.44
2023-02-03T14:44:16.797Z,65.16
2023-02-03T14:46:43.262Z,65.76
2023-02-03T14:49:09.900Z,65.91
2023-02-03T14:51:36.820Z,65.58
2023-02-03T14:54:03.304Z,64.63
2023-02-03T14:56:31.901Z,64.26
2023-02-03T14:58:58.889Z,63.92
2023-02-03T15:01:25.400Z,64.95
2023-02-03T15:03:52.679Z,64.33
2023-02-03T15:06:19.421Z,69.75
2023-02-03T15:08:48.205Z,67.34
2023-02-03T15:11:15.822Z,66.66
2023-02-03T15:13:43.539Z,66.01
2023-02-03T15:16:10.217Z,66.29
2023-02-03T15:18:36.868Z,65.27
2023-02-03T15:21:03.640Z,65.92
2023-02-03T15:23:30.319Z,66.94
2023-02-03T15:25:56.804Z,65.81
2023-02-03T15:28:23.273Z,65.02
2023-02-03T15:30:49.966Z,64.77
2023-02-03T15:33:16.950Z,64.31
2023-02-03T15:35:43.363Z,64.51
2023-02-03T15:38:09.799Z,64.41
2023-02-03T15:40:36.273Z,64.06
2023-02-03T15:43:02.953Z,64.94
2023-02-03T15:45:29.455Z,63.75
2023-02-03T15:47:56.070Z,63.68
2023-02-03T15:50:22.513Z,63.32
2023-02-03T15:52:50.226Z,62.84
2023-02-03T15:55:18.768Z,63.93
2023-02-03T15:57:45.340Z,62.96
2023-02-03T16:00:11.716Z,64.21
2023-02-03T16:02:38.299Z,64.10
2023-02-03T16:05:05.513Z,62.90
2023-02-03T16:07:32.445Z,63.41
2023-02-03T16:09:59.101Z,63.10
2023-02-03T16:12:25.492Z,62.46
2023-02-03T16:14:51.980Z,62.12
2023-02-03T16:17:18.422Z,63.10
2023-02-03T16:19:46.999Z,62.94
2023-02-03T16:22:13.490Z,62.33
2023-02-03T16:24:39.964Z,62.55
2023-02-03T16:27:07.024Z,62.88
2023-02-03T16:29:34.268Z,62.24
2023-02-03T16:32:04.545Z,62.81
2023-02-03T16:34:32.355Z,62.36
2023-02-03T16:36:58.959Z,62.66
2023-02-03T16:39:25.424Z,61.49
2023-02-03T16:41:53.055Z,61.59
2023-02-03T16:44:19.619Z,60.76
2023-02-03T16:46:48.406Z,60.43
2023-02-03T16:49:15.168Z,61.26
2023-02-03T16:51:41.750Z,60.26
2023-02-03T16:54:08.191Z,61.49
2023-02-03T16:56:35.651Z,60.85
2023-02-03T16:59:02.182Z,60.70
2023-02-03T17:01:35.347Z,61.12
2023-02-03T17:04:04.483Z,60.79
2023-02-03T17:06:31.315Z,60.67
2023-02-03T17:08:59.029Z,60.02
2023-02-03T17:11:26.149Z,59.74
2023-02-03T17:13:52.664Z,59.67
2023-02-03T17:16:19.362Z,59.45
2023-02-03T17:18:46.648Z,59.56
2023-02-03T17:21:25.721Z,59.59
2023-02-03T17:23:52.191Z,60.03
2023-02-03T17:26:18.719Z,58.56
2023-02-03T17:28:45.524Z,58.72
2023-02-03T17:31:12.066Z,59.12
2023-02-03T17:33:38.975Z,58.33
2023-02-03T17:36:05.681Z,58.54
2023-02-03T17:38:33.480Z,58.75
2023-02-03T17:54:44.538Z,59.74
2023-02-03T17:57:11.226Z,58.83
2023-02-03T17:59:40.826Z,62.69
2023-02-03T18:02:07.420Z,66.53
2023-02-03T18:04:34.754Z,63.26
2023-02-03T18:07:02.456Z,66.62
2023-02-03T18:09:29.049Z,61.77
2023-02-03T18:11:55.614Z,61.85
2023-02-03T18:14:22.205Z,62.36
2023-02-03T18:16:49.718Z,61.80
2023-02-03T18:19:18.561Z,62.79
2023-02-03T18:21:47.672Z,62.85
2023-02-03T18:24:14.421Z,61.22
2023-02-03T18:26:41.992Z,61.72
2023-02-03T18:29:08.458Z,59.98
2023-02-03T18:31:34.934Z,60.51
2023-02-03T18:34:09.292Z,62.37
2023-02-03T18:36:36.402Z,61.80
2023-02-03T18:39:03.676Z,61.60
2023-02-03T18:41:33.721Z,61.62
2023-02-03T18:44:00.660Z,60.85
2023-02-03T18:46:27.585Z,60.62
2023-02-03T18:49:05.656Z,61.01
2023-02-03T18:51:33.068Z,61.13
2023-02-03T18:54:01.155Z,60.13
2023-02-03T18:56:28.183Z,60.13
2023-02-03T18:58:55.901Z,59.73
2023-02-03T19:01:23.085Z,59.59
2023-02-03T19:03:51.270Z,59.42
2023-02-03T19:06:17.902Z,59.45
2023-02-03T19:08:52.617Z,60.82
2023-02-03T19:11:19.715Z,59.23
2023-02-03T19:13:47.731Z,60.20
2023-02-03T19:16:14.829Z,59.67
2023-02-03T19:18:42.997Z,61.85
2023-02-03T19:21:09.996Z,61.89
2023-02-03T19:23:44.493Z,60.48
2023-02-03T19:26:12.944Z,61.88
2023-02-03T19:28:42.334Z,60.72
2023-02-03T19:31:13.975Z,61.33
2023-02-03T19:33:41.176Z,61.25
2023-02-03T19:36:10.887Z,61.79
2023-02-03T19:38:38.364Z,62.59
2023-02-03T19:41:05.481Z,61.87
2023-02-03T19:43:33.301Z,62.70
2023-02-03T19:46:01.279Z,60.83
2023-02-03T19:48:28.376Z,61.33
2023-02-03T19:50:54.980Z,59.52
2023-02-03T19:53:24.493Z,59.78
2023-02-03T19:55:52.769Z,59.35
2023-02-03T19:58:20.900Z,60.30
2023-02-03T20:00:47.559Z,58.23
2023-02-03T20:03:14.473Z,58.89
2023-02-03T20:05:42.033Z,60.11
2023-02-03T20:08:08.728Z,59.36
2023-02-03T20:10:35.191Z,58.44
2023-02-03T20:13:02.150Z,59.48
2023-02-03T20:15:29.281Z,60.40
2023-02-03T20:17:56.639Z,59.19
2023-02-03T20:20:26.245Z,58.27
2023-02-03T20:22:53.398Z,57.67
2023-02-03T20:25:20.599Z,57.42
2023-02-03T20:27:48.691Z,57.52
2023-02-03T20:30:18.133Z,57.50
2023-02-03T20:32:45.784Z,56.68
2023-02-03T20:35:12.686Z,56.21
2023-02-03T20:37:40.564Z,56.83
2023-02-03T20:40:07.116Z,56.52
2023-02-03T20:42:37.002Z,57.02
2023-02-03T20:45:04.097Z,57.99
2023-02-03T20:47:31.601Z,57.59
2023-02-03T20:50:03.358Z,57.22
2023-02-03T20:52:30.427Z,57.07
2023-02-03T20:54:57.630Z,56.22
2023-02-03T20:57:24.832Z,56.64
2023-02-03T20:59:52.462Z,55.97
2023-02-03T21:02:19.548Z,57.16
2023-02-03T21:04:47.125Z,56.79
2023-02-03T21:07:14.123Z,56.57
2023-02-03T21:09:43.753Z,56.69
2023-02-03T21:12:12.908Z,55.28
2023-02-03T21:14:40.308Z,55.41
2023-02-03T21:17:08.072Z,56.22
2023-02-03T21:19:35.073Z,55.31
2023-02-03T21:22:02.046Z,55.12
2023-02-03T21:24:29.359Z,55.54
2023-02-03T21:26:56.800Z,55.46
2023-02-03T21:29:24.552Z,55.52
2023-02-03T21:31:51.312Z,56.20
2023-02-03T21:34:18.836Z,55.58
2023-02-03T21:36:46.071Z,55.02
2023-02-03T21:39:13.143Z,55.47
2023-02-03T21:41:39.881Z,54.82
2023-02-03T21:44:08.129Z,54.86
2023-02-03T21:46:34.728Z,55.24
2023-02-03T21:49:01.846Z,53.73
2023-02-03T21:51:28.878Z,54.87
2023-02-03T21:53:55.372Z,55.14
2023-02-03T21:56:23.563Z,54.72
2023-02-03T21:58:50.168Z,55.18
2023-02-03T22:01:16.794Z,54.63
2023-02-03T22:03:44.354Z,53.88
2023-02-03T22:06:11.660Z,53.90
2023-02-03T22:08:38.486Z,53.61
2023-02-03T22:11:05.909Z,53.59
2023-02-03T22:13:32.983Z,53.25
2023-02-03T22:15:59.759Z,53.75
2023-02-03T22:18:26.408Z,53.38
2023-02-03T22:20:52.916Z,53.34
2023-02-03T22:23:19.626Z,53.79
2023-02-03T22:25:46.145Z,53.72
2023-02-03T22:28:14.109Z,52.89
2023-02-03T22:30:40.609Z,52.97
2023-02-03T22:33:07.108Z,53.29
2023-02-03T22:35:33.670Z,52.97
2023-02-03T22:38:08.421Z,53.22
2023-02-03T22:40:34.974Z,52.72
2023-02-03T22:43:01.370Z,53.57
2023-02-03T22:45:28.067Z,53.28
2023-02-03T22:47:54.878Z,53.30
2023-02-03T22:50:34.328Z,54.05
2023-02-03T22:53:02.094Z,53.44
2023-02-03T22:55:28.609Z,52.70
2023-02-03T22:57:55.298Z,52.34
2023-02-03T23:00:21.968Z,52.34
2023-02-03T23:02:48.475Z,52.34
2023-02-03T23:05:15.112Z,51.57
2023-02-03T23:07:41.857Z,52.51
2023-02-03T23:10:08.493Z,51.30
2023-02-03T23:12:35.199Z,50.49
2023-02-03T23:15:02.007Z,50.41
2023-02-03T23:17:32.796Z,49.77
2023-02-03T23:19:59.585Z,49.33
2023-02-03T23:22:26.474Z,48.55
2023-02-03T23:24:52.888Z,48.69
2023-02-03T23:27:19.883Z,48.29
2023-02-03T23:29:46.454Z,47.83
2023-02-03T23:32:13.044Z,46.94
2023-02-03T23:34:39.614Z,48.21
2023-02-03T23:37:09.091Z,46.95
2023-02-03T23:39:35.480Z,47.92
2023-02-03T23:42:01.960Z,47.52
2023-02-03T23:44:28.389Z,47.04
2023-02-03T23:46:55.002Z,45.96
2023-02-03T23:49:21.338Z,46.22
2023-02-03T23:51:47.764Z,47.19
2023-02-03T23:54:14.213Z,47.57
2023-02-03T23:56:40.695Z,47.09
2023-02-03T23:59:07.404Z,48.54
